sensor_id;sensor_type;location;lat;lon;timestamp;P1;durP1;ratioP1;P2;durP2;ratioP2
40284;SDS011;25997;50.214;19.354;2023-05-14T00:01:45;6.13;;;3.95;;
40284;SDS011;25997;50.214;19.354;2023-05-14T00:04:49;5.65;;;4.00;;
40284;SDS011;25997;50.214;19.354;2023-05-14T00:07:52;5.97;;;4.35;;
40284;SDS011;25997;50.214;19.354;2023-05-14T00:10:54;6.10;;;4.20;;
40284;SDS011;25997;50.214;19.354;2023-05-14T00:13:56;6.50;;;4.93;;
40284;SDS011;25997;50.214;19.354;2023-05-14T00:16:59;10.30;;;6.75;;
40284;SDS011;25997;50.214;19.354;2023-05-14T00:20:03;15.23;;;12.13;;
40284;SDS011;25997;50.214;19.354;2023-05-14T00:23:06;14.55;;;11.20;;
40284;SDS011;25997;50.214;19.354;2023-05-14T00:26:09;12.75;;;10.63;;
40284;SDS011;25997;50.214;19.354;2023-05-14T00:29:12;12.35;;;9.55;;
40284;SDS011;25997;50.214;19.354;2023-05-14T00:32:15;13.80;;;10.73;;
40284;SDS011;25997;50.214;19.354;2023-05-14T00:35:19;18.73;;;14.60;;
40284;SDS011;25997;50.214;19.354;2023-05-14T00:38:22;19.08;;;16.00;;
40284;SDS011;25997;50.214;19.354;2023-05-14T08:19:11;12.60;;;6.13;;
40284;SDS011;25997;50.214;19.354;2023-05-14T08:22:14;4.65;;;3.80;;
40284;SDS011;25997;50.214;19.354;2023-05-14T08:25:16;4.18;;;3.17;;
40284;SDS011;25997;50.214;19.354;2023-05-14T08:31:48;3.60;;;2.92;;
40284;SDS011;25997;50.214;19.354;2023-05-14T08:38:21;6.35;;;3.55;;
40284;SDS011;25997;50.214;19.354;2023-05-14T08:44:59;3.75;;;3.13;;
40284;SDS011;25997;50.214;19.354;2023-05-14T08:48:04;5.10;;;3.42;;
40284;SDS011;25997;50.214;19.354;2023-05-14T08:51:19;5.20;;;3.78;;
40284;SDS011;25997;50.214;19.354;2023-05-14T08:54:30;4.47;;;3.17;;
40284;SDS011;25997;50.214;19.354;2023-05-14T08:57:43;3.97;;;3.22;;
40284;SDS011;25997;50.214;19.354;2023-05-14T09:00:54;5.90;;;4.32;;
40284;SDS011;25997;50.214;19.354;2023-05-14T09:07:56;5.65;;;4.78;;
40284;SDS011;25997;50.214;19.354;2023-05-14T09:14:32;4.85;;;2.95;;
40284;SDS011;25997;50.214;19.354;2023-05-14T09:17:35;3.83;;;3.38;;
40284;SDS011;25997;50.214;19.354;2023-05-14T09:20:43;3.95;;;3.30;;
40284;SDS011;25997;50.214;19.354;2023-05-14T09:23:49;4.30;;;3.22;;
40284;SDS011;25997;50.214;19.354;2023-05-14T09:30:30;4.18;;;3.30;;
40284;SDS011;25997;50.214;19.354;2023-05-14T09:37:07;4.32;;;3.22;;
40284;SDS011;25997;50.214;19.354;2023-05-14T09:40:18;4.28;;;3.15;;
40284;SDS011;25997;50.214;19.354;2023-05-14T09:43:25;6.68;;;4.78;;
40284;SDS011;25997;50.214;19.354;2023-05-14T09:50:25;4.45;;;2.75;;
40284;SDS011;25997;50.214;19.354;2023-05-14T09:53:29;2.95;;;2.65;;
40284;SDS011;25997;50.214;19.354;2023-05-14T09:56:35;5.45;;;3.10;;
40284;SDS011;25997;50.214;19.354;2023-05-14T10:03:09;3.58;;;3.25;;
40284;SDS011;25997;50.214;19.354;2023-05-14T10:06:16;2.97;;;2.50;;
40284;SDS011;25997;50.214;19.354;2023-05-14T10:09:23;4.75;;;2.60;;
40284;SDS011;25997;50.214;19.354;2023-05-14T10:12:34;3.45;;;3.08;;
40284;SDS011;25997;50.214;19.354;2023-05-14T10:16:06;3.60;;;2.50;;
40284;SDS011;25997;50.214;19.354;2023-05-14T10:19:14;3.33;;;3.03;;
40284;SDS011;25997;50.214;19.354;2023-05-14T10:22:21;3.30;;;3.00;;
40284;SDS011;25997;50.214;19.354;2023-05-14T10:25:26;4.97;;;3.20;;
40284;SDS011;25997;50.214;19.354;2023-05-14T10:28:34;3.78;;;2.80;;
40284;SDS011;25997;50.214;19.354;2023-05-14T10:35:18;3.15;;;2.85;;
40284;SDS011;25997;50.214;19.354;2023-05-14T10:38:25;4.13;;;2.97;;
40284;SDS011;25997;50.214;19.354;2023-05-14T10:46:37;3.25;;;2.78;;
40284;SDS011;25997;50.214;19.354;2023-05-14T10:53:11;3.35;;;2.92;;
40284;SDS011;25997;50.214;19.354;2023-05-14T10:59:45;3.13;;;2.25;;
40284;SDS011;25997;50.214;19.354;2023-05-14T11:02:55;3.63;;;2.88;;
40284;SDS011;25997;50.214;19.354;2023-05-14T11:06:01;5.53;;;2.92;;
40284;SDS011;25997;50.214;19.354;2023-05-14T11:09:06;3.38;;;3.08;;
40284;SDS011;25997;50.214;19.354;2023-05-14T11:12:09;3.47;;;2.42;;
40284;SDS011;25997;50.214;19.354;2023-05-14T11:18:48;7.18;;;4.55;;
40284;SDS011;25997;50.214;19.354;2023-05-14T11:21:57;5.68;;;3.20;;
40284;SDS011;25997;50.214;19.354;2023-05-14T11:25:04;5.57;;;3.80;;
40284;SDS011;25997;50.214;19.354;2023-05-14T11:28:39;3.20;;;2.40;;
40284;SDS011;25997;50.214;19.354;2023-05-14T11:31:50;2.67;;;2.13;;
40284;SDS011;25997;50.214;19.354;2023-05-14T11:34:56;2.97;;;2.22;;
40284;SDS011;25997;50.214;19.354;2023-05-14T11:42:16;3.13;;;2.08;;
40284;SDS011;25997;50.214;19.354;2023-05-14T11:45:25;3.58;;;2.53;;
40284;SDS011;25997;50.214;19.354;2023-05-14T11:48:30;2.75;;;2.35;;
40284;SDS011;25997;50.214;19.354;2023-05-14T11:56:56;2.65;;;2.38;;
40284;SDS011;25997;50.214;19.354;2023-05-14T11:59:59;3.08;;;2.55;;
40284;SDS011;25997;50.214;19.354;2023-05-14T12:03:09;3.50;;;1.85;;
40284;SDS011;25997;50.214;19.354;2023-05-14T12:09:43;2.65;;;2.22;;
40284;SDS011;25997;50.214;19.354;2023-05-14T12:12:50;4.70;;;2.10;;
40284;SDS011;25997;50.214;19.354;2023-05-14T12:15:54;4.07;;;2.60;;
40284;SDS011;25997;50.214;19.354;2023-05-14T12:18:59;2.40;;;2.15;;
40284;SDS011;25997;50.214;19.354;2023-05-14T12:22:02;1.98;;;1.60;;
40284;SDS011;25997;50.214;19.354;2023-05-14T12:25:09;2.72;;;2.00;;
40284;SDS011;25997;50.214;19.354;2023-05-14T12:28:15;2.05;;;1.80;;
40284;SDS011;25997;50.214;19.354;2023-05-14T12:34:50;4.03;;;1.92;;
40284;SDS011;25997;50.214;19.354;2023-05-14T12:37:53;2.47;;;1.70;;
40284;SDS011;25997;50.214;19.354;2023-05-14T12:40:59;2.30;;;1.80;;
40284;SDS011;25997;50.214;19.354;2023-05-14T12:47:33;4.22;;;2.45;;
40284;SDS011;25997;50.214;19.354;2023-05-14T12:50:38;4.93;;;1.95;;
40284;SDS011;25997;50.214;19.354;2023-05-14T12:53:40;2.35;;;1.85;;
40284;SDS011;25997;50.214;19.354;2023-05-14T13:00:16;3.75;;;1.88;;
40284;SDS011;25997;50.214;19.354;2023-05-14T13:03:24;2.85;;;1.90;;
40284;SDS011;25997;50.214;19.354;2023-05-14T13:06:27;5.35;;;2.03;;
40284;SDS011;25997;50.214;19.354;2023-05-14T13:09:35;3.42;;;1.85;;
40284;SDS011;25997;50.214;19.354;2023-05-14T13:12:37;3.03;;;1.63;;
40284;SDS011;25997;50.214;19.354;2023-05-14T13:19:16;4.05;;;2.17;;
40284;SDS011;25997;50.214;19.354;2023-05-14T13:22:20;2.70;;;2.20;;
40284;SDS011;25997;50.214;19.354;2023-05-14T13:25:22;3.75;;;3.08;;
40284;SDS011;25997;50.214;19.354;2023-05-14T13:28:25;2.20;;;2.00;;
40284;SDS011;25997;50.214;19.354;2023-05-14T13:31:29;2.63;;;2.05;;
40284;SDS011;25997;50.214;19.354;2023-05-14T13:34:32;3.92;;;2.08;;
40284;SDS011;25997;50.214;19.354;2023-05-14T13:37:34;1.70;;;1.42;;
40284;SDS011;25997;50.214;19.354;2023-05-14T13:40:37;2.10;;;1.60;;
40284;SDS011;25997;50.214;19.354;2023-05-14T13:43:40;2.95;;;1.70;;
40284;SDS011;25997;50.214;19.354;2023-05-14T13:46:44;2.30;;;1.83;;
40284;SDS011;25997;50.214;19.354;2023-05-14T13:49:49;2.13;;;1.60;;
40284;SDS011;25997;50.214;19.354;2023-05-14T13:52:57;2.65;;;1.65;;
40284;SDS011;25997;50.214;19.354;2023-05-14T13:56:00;2.30;;;1.77;;
40284;SDS011;25997;50.214;19.354;2023-05-14T13:59:03;2.80;;;2.00;;
40284;SDS011;25997;50.214;19.354;2023-05-14T14:02:09;3.88;;;2.28;;
40284;SDS011;25997;50.214;19.354;2023-05-14T14:05:16;2.65;;;1.98;;
40284;SDS011;25997;50.214;19.354;2023-05-14T14:08:19;2.35;;;1.63;;
40284;SDS011;25997;50.214;19.354;2023-05-14T14:11:21;4.40;;;1.88;;
40284;SDS011;25997;50.214;19.354;2023-05-14T14:14:31;2.15;;;1.52;;
40284;SDS011;25997;50.214;19.354;2023-05-14T14:17:38;2.15;;;1.70;;
40284;SDS011;25997;50.214;19.354;2023-05-14T14:20:42;3.08;;;1.83;;
40284;SDS011;25997;50.214;19.354;2023-05-14T14:23:48;2.20;;;1.65;;
40284;SDS011;25997;50.214;19.354;2023-05-14T14:26:50;3.72;;;1.90;;
40284;SDS011;25997;50.214;19.354;2023-05-14T14:29:55;3.58;;;1.73;;
40284;SDS011;25997;50.214;19.354;2023-05-14T14:33:02;1.80;;;1.38;;
40284;SDS011;25997;50.214;19.354;2023-05-14T14:36:05;4.43;;;1.67;;
40284;SDS011;25997;50.214;19.354;2023-05-14T14:39:10;2.35;;;1.60;;
40284;SDS011;25997;50.214;19.354;2023-05-14T14:42:13;3.15;;;2.15;;
40284;SDS011;25997;50.214;19.354;2023-05-14T14:49:11;2.60;;;1.80;;
40284;SDS011;25997;50.214;19.354;2023-05-14T14:52:14;2.47;;;1.58;;
40284;SDS011;25997;50.214;19.354;2023-05-14T14:58:54;2.30;;;1.40;;
40284;SDS011;25997;50.214;19.354;2023-05-14T15:02:01;2.05;;;1.50;;
40284;SDS011;25997;50.214;19.354;2023-05-14T15:05:06;2.25;;;1.33;;
40284;SDS011;25997;50.214;19.354;2023-05-14T15:08:12;3.38;;;1.30;;
40284;SDS011;25997;50.214;19.354;2023-05-14T15:11:15;2.33;;;1.52;;
40284;SDS011;25997;50.214;19.354;2023-05-14T15:14:32;1.83;;;1.20;;
40284;SDS011;25997;50.214;19.354;2023-05-14T15:21:06;2.88;;;1.67;;
40284;SDS011;25997;50.214;19.354;2023-05-14T15:24:09;1.80;;;1.38;;
40284;SDS011;25997;50.214;19.354;2023-05-14T15:27:17;2.22;;;1.40;;
40284;SDS011;25997;50.214;19.354;2023-05-14T15:30:20;2.03;;;1.45;;
40284;SDS011;25997;50.214;19.354;2023-05-14T15:33:22;2.53;;;1.50;;
40284;SDS011;25997;50.214;19.354;2023-05-14T15:36:27;2.15;;;1.35;;
40284;SDS011;25997;50.214;19.354;2023-05-14T15:39:30;3.88;;;1.42;;
40284;SDS011;25997;50.214;19.354;2023-05-14T15:42:36;3.35;;;1.60;;
40284;SDS011;25997;50.214;19.354;2023-05-14T15:45:42;2.50;;;1.35;;
40284;SDS011;25997;50.214;19.354;2023-05-14T15:48:45;3.58;;;1.50;;
40284;SDS011;25997;50.214;19.354;2023-05-14T15:57:10;3.42;;;2.70;;
40284;SDS011;25997;50.214;19.354;2023-05-14T16:00:15;3.45;;;2.35;;
40284;SDS011;25997;50.214;19.354;2023-05-14T16:03:22;3.97;;;2.40;;
40284;SDS011;25997;50.214;19.354;2023-05-14T16:06:25;5.25;;;2.28;;
40284;SDS011;25997;50.214;19.354;2023-05-14T16:09:35;4.57;;;3.20;;
40284;SDS011;25997;50.214;19.354;2023-05-14T16:12:41;4.32;;;2.90;;
40284;SDS011;25997;50.214;19.354;2023-05-14T16:15:45;4.05;;;2.65;;
40284;SDS011;25997;50.214;19.354;2023-05-14T16:18:48;4.18;;;3.10;;
40284;SDS011;25997;50.214;19.354;2023-05-14T16:21:50;3.63;;;2.60;;
40284;SDS011;25997;50.214;19.354;2023-05-14T16:24:58;4.22;;;3.03;;
40284;SDS011;25997;50.214;19.354;2023-05-14T16:28:03;3.08;;;2.10;;
40284;SDS011;25997;50.214;19.354;2023-05-14T16:31:09;3.90;;;2.60;;
40284;SDS011;25997;50.214;19.354;2023-05-14T16:34:12;3.38;;;2.47;;
40284;SDS011;25997;50.214;19.354;2023-05-14T16:37:14;4.13;;;2.63;;
40284;SDS011;25997;50.214;19.354;2023-05-14T16:40:22;5.60;;;3.22;;
40284;SDS011;25997;50.214;19.354;2023-05-14T16:43:26;3.80;;;2.60;;
40284;SDS011;25997;50.214;19.354;2023-05-14T16:46:29;4.03;;;2.65;;
40284;SDS011;25997;50.214;19.354;2023-05-14T16:49:32;3.47;;;2.10;;
40284;SDS011;25997;50.214;19.354;2023-05-14T16:56:05;5.28;;;2.50;;
40284;SDS011;25997;50.214;19.354;2023-05-14T16:59:11;6.13;;;4.68;;
40284;SDS011;25997;50.214;19.354;2023-05-14T17:02:13;6.78;;;5.68;;
40284;SDS011;25997;50.214;19.354;2023-05-14T17:05:17;5.85;;;5.13;;
40284;SDS011;25997;50.214;19.354;2023-05-14T17:08:20;9.38;;;6.72;;
40284;SDS011;25997;50.214;19.354;2023-05-14T17:11:22;7.43;;;6.03;;
40284;SDS011;25997;50.214;19.354;2023-05-14T17:14:32;9.27;;;7.68;;
40284;SDS011;25997;50.214;19.354;2023-05-14T17:17:38;7.03;;;6.32;;
40284;SDS011;25997;50.214;19.354;2023-05-14T17:20:43;5.70;;;4.57;;
40284;SDS011;25997;50.214;19.354;2023-05-14T17:23:48;6.63;;;5.07;;
40284;SDS011;25997;50.214;19.354;2023-05-14T17:26:52;5.72;;;4.57;;
40284;SDS011;25997;50.214;19.354;2023-05-14T17:29:57;6.93;;;5.25;;
40284;SDS011;25997;50.214;19.354;2023-05-14T17:36:31;7.23;;;5.13;;
40284;SDS011;25997;50.214;19.354;2023-05-14T17:39:37;7.25;;;4.78;;
40284;SDS011;25997;50.214;19.354;2023-05-14T17:46:11;6.25;;;4.63;;
40284;SDS011;25997;50.214;19.354;2023-05-14T17:56:17;12.35;;;8.25;;
40284;SDS011;25997;50.214;19.354;2023-05-14T18:04:45;13.90;;;8.95;;
40284;SDS011;25997;50.214;19.354;2023-05-14T18:08:42;6.25;;;4.90;;
40284;SDS011;25997;50.214;19.354;2023-05-14T18:11:45;8.75;;;6.22;;
40284;SDS011;25997;50.214;19.354;2023-05-14T18:18:19;8.40;;;7.57;;
40284;SDS011;25997;50.214;19.354;2023-05-14T18:21:26;22.73;;;20.65;;
40284;SDS011;25997;50.214;19.354;2023-05-14T18:24:29;11.18;;;10.02;;
40284;SDS011;25997;50.214;19.354;2023-05-14T18:27:32;13.93;;;12.48;;
40284;SDS011;25997;50.214;19.354;2023-05-14T18:34:05;10.38;;;9.35;;
40284;SDS011;25997;50.214;19.354;2023-05-14T18:37:09;12.77;;;11.02;;
40284;SDS011;25997;50.214;19.354;2023-05-14T18:40:12;17.80;;;13.65;;
40284;SDS011;25997;50.214;19.354;2023-05-14T18:46:44;26.77;;;15.40;;
40284;SDS011;25997;50.214;19.354;2023-05-14T18:49:55;25.02;;;17.05;;
40284;SDS011;25997;50.214;19.354;2023-05-14T18:53:01;17.98;;;13.23;;
40284;SDS011;25997;50.214;19.354;2023-05-14T18:56:04;20.45;;;13.10;;
40284;SDS011;25997;50.214;19.354;2023-05-14T18:59:06;22.10;;;12.35;;
40284;SDS011;25997;50.214;19.354;2023-05-14T19:02:09;12.85;;;7.05;;
40284;SDS011;25997;50.214;19.354;2023-05-14T19:05:12;5.45;;;3.88;;
40284;SDS011;25997;50.214;19.354;2023-05-14T19:08:17;3.97;;;3.22;;
40284;SDS011;25997;50.214;19.354;2023-05-14T19:11:19;10.95;;;6.63;;
40284;SDS011;25997;50.214;19.354;2023-05-14T19:14:22;5.97;;;4.32;;
40284;SDS011;25997;50.214;19.354;2023-05-14T19:17:27;6.05;;;4.00;;
40284;SDS011;25997;50.214;19.354;2023-05-14T19:21:27;6.45;;;4.70;;
40284;SDS011;25997;50.214;19.354;2023-05-14T19:24:31;6.63;;;5.15;;
40284;SDS011;25997;50.214;19.354;2023-05-14T19:27:35;7.30;;;4.78;;
40284;SDS011;25997;50.214;19.354;2023-05-14T19:30:37;8.98;;;5.63;;
40284;SDS011;25997;50.214;19.354;2023-05-14T19:33:40;8.13;;;4.97;;
40284;SDS011;25997;50.214;19.354;2023-05-14T19:36:42;6.95;;;5.47;;
40284;SDS011;25997;50.214;19.354;2023-05-14T19:39:46;6.80;;;5.60;;
40284;SDS011;25997;50.214;19.354;2023-05-14T19:42:49;11.27;;;6.40;;
40284;SDS011;25997;50.214;19.354;2023-05-14T19:45:51;9.75;;;5.93;;
40284;SDS011;25997;50.214;19.354;2023-05-14T19:48:54;7.93;;;5.97;;
40284;SDS011;25997;50.214;19.354;2023-05-14T19:51:56;7.22;;;6.28;;
40284;SDS011;25997;50.214;19.354;2023-05-14T19:55:00;6.75;;;5.38;;
40284;SDS011;25997;50.214;19.354;2023-05-14T19:58:03;5.15;;;3.67;;
40284;SDS011;25997;50.214;19.354;2023-05-14T20:01:05;5.05;;;3.70;;
40284;SDS011;25997;50.214;19.354;2023-05-14T20:04:08;5.13;;;3.28;;
40284;SDS011;25997;50.214;19.354;2023-05-14T20:07:10;5.20;;;3.33;;
40284;SDS011;25997;50.214;19.354;2023-05-14T20:10:16;6.38;;;4.60;;
40284;SDS011;25997;50.214;19.354;2023-05-14T20:13:18;8.00;;;5.93;;
40284;SDS011;25997;50.214;19.354;2023-05-14T20:16:21;6.25;;;4.60;;
40284;SDS011;25997;50.214;19.354;2023-05-14T20:19:24;5.78;;;3.92;;
40284;SDS011;25997;50.214;19.354;2023-05-14T20:22:27;4.60;;;3.90;;
40284;SDS011;25997;50.214;19.354;2023-05-14T20:25:31;6.07;;;4.30;;
40284;SDS011;25997;50.214;19.354;2023-05-14T20:28:33;4.88;;;3.70;;
40284;SDS011;25997;50.214;19.354;2023-05-14T20:31:36;6.00;;;3.55;;
40284;SDS011;25997;50.214;19.354;2023-05-14T20:34:38;6.30;;;3.70;;
40284;SDS011;25997;50.214;19.354;2023-05-14T20:37:41;4.47;;;3.60;;
40284;SDS011;25997;50.214;19.354;2023-05-14T20:40:44;5.03;;;4.32;;
40284;SDS011;25997;50.214;19.354;2023-05-14T20:43:47;7.20;;;4.90;;
40284;SDS011;25997;50.214;19.354;2023-05-14T20:46:49;8.45;;;5.63;;
40284;SDS011;25997;50.214;19.354;2023-05-14T20:49:52;12.52;;;7.38;;
40284;SDS011;25997;50.214;19.354;2023-05-14T20:52:55;14.45;;;10.32;;
40284;SDS011;25997;50.214;19.354;2023-05-14T20:55:59;13.48;;;10.07;;
40284;SDS011;25997;50.214;19.354;2023-05-14T20:59:01;17.10;;;10.05;;
40284;SDS011;25997;50.214;19.354;2023-05-14T21:02:04;11.18;;;6.82;;
40284;SDS011;25997;50.214;19.354;2023-05-14T21:05:08;7.10;;;6.18;;
40284;SDS011;25997;50.214;19.354;2023-05-14T21:08:10;9.35;;;7.65;;
40284;SDS011;25997;50.214;19.354;2023-05-14T21:11:14;8.50;;;6.93;;
40284;SDS011;25997;50.214;19.354;2023-05-14T21:14:17;9.73;;;6.45;;
40284;SDS011;25997;50.214;19.354;2023-05-14T21:17:19;12.75;;;6.97;;
40284;SDS011;25997;50.214;19.354;2023-05-14T21:20:22;5.70;;;5.05;;
40284;SDS011;25997;50.214;19.354;2023-05-14T21:23:25;10.18;;;6.43;;
40284;SDS011;25997;50.214;19.354;2023-05-14T21:26:29;7.75;;;5.85;;
40284;SDS011;25997;50.214;19.354;2023-05-14T21:29:32;9.45;;;6.70;;
40284;SDS011;25997;50.214;19.354;2023-05-14T21:32:35;8.57;;;5.68;;
40284;SDS011;25997;50.214;19.354;2023-05-14T21:35:37;8.65;;;5.70;;
40284;SDS011;25997;50.214;19.354;2023-05-14T21:38:40;8.15;;;6.25;;
40284;SDS011;25997;50.214;19.354;2023-05-14T21:41:43;8.95;;;6.68;;
40284;SDS011;25997;50.214;19.354;2023-05-14T21:44:46;8.07;;;6.22;;
40284;SDS011;25997;50.214;19.354;2023-05-14T21:47:48;8.40;;;6.28;;
40284;SDS011;25997;50.214;19.354;2023-05-14T21:50:51;9.32;;;6.70;;
40284;SDS011;25997;50.214;19.354;2023-05-14T21:57:23;8.80;;;5.78;;
40284;SDS011;25997;50.214;19.354;2023-05-14T22:00:26;6.63;;;5.15;;
40284;SDS011;25997;50.214;19.354;2023-05-14T22:03:28;8.70;;;4.70;;
40284;SDS011;25997;50.214;19.354;2023-05-14T22:06:31;8.05;;;4.55;;
40284;SDS011;25997;50.214;19.354;2023-05-14T22:09:33;5.28;;;4.53;;
40284;SDS011;25997;50.214;19.354;2023-05-14T22:12:37;8.73;;;6.15;;
40284;SDS011;25997;50.214;19.354;2023-05-14T22:15:39;8.70;;;6.15;;
40284;SDS011;25997;50.214;19.354;2023-05-14T22:18:42;6.15;;;5.38;;
40284;SDS011;25997;50.214;19.354;2023-05-14T22:21:44;5.03;;;3.45;;
40284;SDS011;25997;50.214;19.354;2023-05-14T22:24:47;4.63;;;3.60;;
40284;SDS011;25997;50.214;19.354;2023-05-14T22:27:50;5.10;;;3.47;;
40284;SDS011;25997;50.214;19.354;2023-05-14T22:30:53;4.30;;;3.47;;
40284;SDS011;25997;50.214;19.354;2023-05-14T22:33:55;6.25;;;3.00;;
40284;SDS011;25997;50.214;19.354;2023-05-14T22:36:58;3.53;;;2.92;;
40284;SDS011;25997;50.214;19.354;2023-05-14T22:40:02;3.90;;;2.80;;
40284;SDS011;25997;50.214;19.354;2023-05-14T22:43:08;3.30;;;2.35;;
40284;SDS011;25997;50.214;19.354;2023-05-14T22:46:10;3.63;;;2.72;;
40284;SDS011;25997;50.214;19.354;2023-05-14T22:49:13;2.78;;;2.17;;
40284;SDS011;25997;50.214;19.354;2023-05-14T22:52:15;5.90;;;2.70;;
40284;SDS011;25997;50.214;19.354;2023-05-14T22:55:18;4.22;;;3.03;;
40284;SDS011;25997;50.214;19.354;2023-05-14T22:58:22;5.07;;;2.70;;
40284;SDS011;25997;50.214;19.354;2023-05-14T23:01:25;3.83;;;2.78;;
40284;SDS011;25997;50.214;19.354;2023-05-14T23:04:27;4.25;;;3.22;;
40284;SDS011;25997;50.214;19.354;2023-05-14T23:07:29;5.50;;;2.80;;
40284;SDS011;25997;50.214;19.354;2023-05-14T23:10:32;3.85;;;2.83;;
40284;SDS011;25997;50.214;19.354;2023-05-14T23:13:37;4.63;;;3.47;;
40284;SDS011;25997;50.214;19.354;2023-05-14T23:16:40;4.57;;;4.13;;
40284;SDS011;25997;50.214;19.354;2023-05-14T23:19:42;4.03;;;3.22;;
40284;SDS011;25997;50.214;19.354;2023-05-14T23:22:45;4.80;;;4.18;;
40284;SDS011;25997;50.214;19.354;2023-05-14T23:25:47;3.75;;;2.92;;
40284;SDS011;25997;50.214;19.354;2023-05-14T23:28:52;3.47;;;2.90;;
40284;SDS011;25997;50.214;19.354;2023-05-14T23:31:54;4.70;;;2.38;;
40284;SDS011;25997;50.214;19.354;2023-05-14T23:34:57;2.42;;;2.00;;
40284;SDS011;25997;50.214;19.354;2023-05-14T23:37:59;3.28;;;1.95;;
40284;SDS011;25997;50.214;19.354;2023-05-14T23:41:02;2.45;;;1.77;;
40284;SDS011;25997;50.214;19.354;2023-05-14T23:44:06;2.60;;;1.70;;
40284;SDS011;25997;50.214;19.354;2023-05-14T23:47:08;4.38;;;2.13;;
40284;SDS011;25997;50.214;19.354;2023-05-14T23:50:11;2.85;;;1.73;;
40284;SDS011;25997;50.214;19.354;2023-05-14T23:53:14;3.75;;;1.98;;
40284;SDS011;25997;50.214;19.354;2023-05-14T23:56:16;2.35;;;1.80;;
40284;SDS011;25997;50.214;19.354;2023-05-14T23:59:20;3.38;;;1.95;;
